This is the latest recevied weather packets stored in our database for station/object K4CRS-13. If no packets are shown the sender has not sent any weather packets the latest 10 day(s).
| Time | Temp. | Humidity | Pressure | Rain* | Wind** | Luminosity | Snow |
|---|---|---|---|---|---|---|---|
| 1788109374 | 32.78° C | 64% | 1055.7 hPa | 0 mm | - | 843 W/m² | - |
| 1788109073 | 33.33° C | 61% | 1056 hPa | 0 mm | - | 709 W/m² | - |
| 1788108769 | 33.33° C | 64% | 1055.7 hPa | 0 mm | - | 837 W/m² | - |
| 1788108465 | 32.78° C | 64% | 1055.7 hPa | 0 mm | - | 848 W/m² | - |
| 1788108161 | 32.22° C | 65% | 1055.7 hPa | 0 mm | - | 577 W/m² | - |
| 1788107857 | 32.78° C | 65% | 1055.6 hPa | 0 mm | - | 756 W/m² | - |
| 1788107553 | 32.22° C | 65% | 1055.7 hPa | 0 mm | - | 209 W/m² | - |
| 1788107247 | 31.67° C | 66% | 1056 hPa | 0 mm | - | 337 W/m² | - |
| 1788106944 | 32.78° C | 65% | 1056 hPa | 0 mm | - | 260 W/m² | - |
| 1788106639 | 32.78° C | 63% | 1056 hPa | 0 mm | - | 477 W/m² | - |
| 1788106333 | 31.67° C | 68% | 1055.9 hPa | 0 mm | - | 811 W/m² | - |
| 1788106029 | 31.67° C | 68% | 1055.8 hPa | 0 mm | - | 241 W/m² | - |
| 1788105729 | 31.67° C | 69% | 1056.1 hPa | 0 mm | - | 725 W/m² | - |
| 1788105425 | 31.11° C | 69% | 1056 hPa | 0 mm | - | 394 W/m² | - |
| 1788105121 | 32.78° C | 64% | 1056.1 hPa | 0 mm | - | 233 W/m² | - |
| 1788104816 | 31.67° C | 68% | 1056 hPa | 0 mm | - | 727 W/m² | - |
| 1788104511 | 32.78° C | 64% | 1056.1 hPa | 0 mm | - | 701 W/m² | - |
| 1788104208 | 32.22° C | 66% | 1056.2 hPa | 0 mm | - | 666 W/m² | - |
| 1788103908 | 31.67° C | 67% | 1056.1 hPa | 0 mm | - | 647 W/m² | - |
| 1788103607 | 31.67° C | 71% | 1056.2 hPa | 0 mm | - | 678 W/m² | - |
| 1788103306 | 31.67° C | 69% | 1056 hPa | 0 mm | - | 335 W/m² | - |
| 1788103001 | 31.11° C | 71% | 1056.1 hPa | 0 mm | - | 617 W/m² | - |
| 1788102701 | 31.11° C | 70% | 1056.1 hPa | 0 mm | - | 575 W/m² | - |
| 1788102401 | 31.11° C | 70% | 1056.3 hPa | 0 mm | - | 544 W/m² | - |
| 1788102096 | 31.11° C | 69% | 1056 hPa | 0 mm | - | 542 W/m² | - |
* Rain latest hour (hover to see other rain measurements)
** Current wind speed in m/s (hover to see current wind gust speed)